Terminal Aerodrome Forecast
Issued by NWS

Home | Current Version | Previous Version | Text Only | Print | Product List | Glossary On
Versions: 1 2 3 4 5 6 7 8 9 10 11 12 13 14 15 16 17 18
000
FTUS42 KMLB 041127
TAFISM
TAF
KISM 041127Z 0412/0512 23003KT P6SM BKN140 BKN250
     FM041400 16005KT P6SM FEW030 SCT250
     FM041900 12007KT P6SM VCTS SCT040CB BKN080
      TEMPO 0420/0423 3SM TSRA BKN020CB OVC040
     FM050000 11007KT P6SM SCT040 OVC100
     FM050300 15003KT P6SM SCT120 BKN250=

USA.gov is the U.S. government's official web portal to all federal, state and local government web resources and services.